sensor_id;sensor_type;location;lat;lon;timestamp;temperature;humidity
8103;DHT22;4094;49.948;11.574;2023-02-01T00:01:56;7.40;72.80
8103;DHT22;4094;49.948;11.574;2023-02-01T00:04:25;7.40;72.80
8103;DHT22;4094;49.948;11.574;2023-02-01T00:06:54;7.50;72.90
8103;DHT22;4094;49.948;11.574;2023-02-01T00:09:23;7.50;72.80
8103;DHT22;4094;49.948;11.574;2023-02-01T00:11:53;7.50;72.80
8103;DHT22;4094;49.948;11.574;2023-02-01T00:14:23;7.40;72.70
8103;DHT22;4094;49.948;11.574;2023-02-01T00:16:51;7.40;72.80
8103;DHT22;4094;49.948;11.574;2023-02-01T00:19:21;7.40;72.90
8103;DHT22;4094;49.948;11.574;2023-02-01T00:21:50;7.40;73.80
8103;DHT22;4094;49.948;11.574;2023-02-01T00:24:19;7.40;73.00
8103;DHT22;4094;49.948;11.574;2023-02-01T00:26:48;7.40;73.20
8103;DHT22;4094;49.948;11.574;2023-02-01T00:29:20;7.50;73.30
8103;DHT22;4094;49.948;11.574;2023-02-01T00:31:50;7.50;73.30
8103;DHT22;4094;49.948;11.574;2023-02-01T00:34:20;7.40;73.10
8103;DHT22;4094;49.948;11.574;2023-02-01T00:36:49;7.40;73.10
8103;DHT22;4094;49.948;11.574;2023-02-01T00:39:18;7.40;73.30
8103;DHT22;4094;49.948;11.574;2023-02-01T00:41:47;7.40;73.30
8103;DHT22;4094;49.948;11.574;2023-02-01T00:44:17;7.40;73.40
8103;DHT22;4094;49.948;11.574;2023-02-01T00:46:46;7.40;73.60
8103;DHT22;4094;49.948;11.574;2023-02-01T00:49:15;7.40;73.60
8103;DHT22;4094;49.948;11.574;2023-02-01T00:51:44;7.40;73.60
8103;DHT22;4094;49.948;11.574;2023-02-01T00:54:13;7.40;73.50
8103;DHT22;4094;49.948;11.574;2023-02-01T00:56:42;7.40;73.60
8103;DHT22;4094;49.948;11.574;2023-02-01T00:59:12;7.40;73.60
8103;DHT22;4094;49.948;11.574;2023-02-01T01:01:42;7.50;73.70
8103;DHT22;4094;49.948;11.574;2023-02-01T01:04:12;7.50;73.70
8103;DHT22;4094;49.948;11.574;2023-02-01T01:06:40;7.50;73.70
8103;DHT22;4094;49.948;11.574;2023-02-01T01:09:09;7.50;73.90
8103;DHT22;4094;49.948;11.574;2023-02-01T01:11:39;7.50;73.80
8103;DHT22;4094;49.948;11.574;2023-02-01T01:14:08;7.50;73.90
8103;DHT22;4094;49.948;11.574;2023-02-01T01:16:38;7.50;73.90
8103;DHT22;4094;49.948;11.574;2023-02-01T01:19:08;7.50;73.80
8103;DHT22;4094;49.948;11.574;2023-02-01T01:21:38;7.50;73.80
8103;DHT22;4094;49.948;11.574;2023-02-01T01:24:07;7.50;73.70
8103;DHT22;4094;49.948;11.574;2023-02-01T01:26:36;7.60;73.70
8103;DHT22;4094;49.948;11.574;2023-02-01T01:29:05;7.50;73.60
8103;DHT22;4094;49.948;11.574;2023-02-01T01:31:34;7.50;73.60
8103;DHT22;4094;49.948;11.574;2023-02-01T01:34:03;7.50;73.60
8103;DHT22;4094;49.948;11.574;2023-02-01T01:36:34;7.50;73.70
8103;DHT22;4094;49.948;11.574;2023-02-01T01:39:02;7.50;73.70
8103;DHT22;4094;49.948;11.574;2023-02-01T01:41:32;7.50;73.60
8103;DHT22;4094;49.948;11.574;2023-02-01T01:47:14;7.50;73.70
8103;DHT22;4094;49.948;11.574;2023-02-01T01:49:44;7.50;73.70
8103;DHT22;4094;49.948;11.574;2023-02-01T01:52:14;7.50;73.60
8103;DHT22;4094;49.948;11.574;2023-02-01T01:54:45;7.50;73.70
8103;DHT22;4094;49.948;11.574;2023-02-01T01:57:18;7.50;73.80
8103;DHT22;4094;49.948;11.574;2023-02-01T01:59:54;7.50;73.80
8103;DHT22;4094;49.948;11.574;2023-02-01T02:02:24;7.50;73.70
8103;DHT22;4094;49.948;11.574;2023-02-01T02:04:54;7.50;73.60
8103;DHT22;4094;49.948;11.574;2023-02-01T02:07:28;7.50;73.60
8103;DHT22;4094;49.948;11.574;2023-02-01T02:09:57;7.50;73.70
8103;DHT22;4094;49.948;11.574;2023-02-01T02:12:28;7.50;73.60
8103;DHT22;4094;49.948;11.574;2023-02-01T02:14:57;7.50;73.40
8103;DHT22;4094;49.948;11.574;2023-02-01T02:17:31;7.50;73.40
8103;DHT22;4094;49.948;11.574;2023-02-01T02:30:01;7.40;73.30
8103;DHT22;4094;49.948;11.574;2023-02-01T02:35:44;7.40;73.20
8103;DHT22;4094;49.948;11.574;2023-02-01T02:38:21;7.40;73.10
8103;DHT22;4094;49.948;11.574;2023-02-01T02:40:59;7.40;73.20
8103;DHT22;4094;49.948;11.574;2023-02-01T02:43:35;7.40;73.10
8103;DHT22;4094;49.948;11.574;2023-02-01T02:46:31;7.30;72.90
8103;DHT22;4094;49.948;11.574;2023-02-01T02:49:23;7.30;72.90
8103;DHT22;4094;49.948;11.574;2023-02-01T02:52:04;7.30;72.90
8103;DHT22;4094;49.948;11.574;2023-02-01T02:54:54;7.30;72.90
8103;DHT22;4094;49.948;11.574;2023-02-01T02:57:27;7.30;72.90
8103;DHT22;4094;49.948;11.574;2023-02-01T03:00:16;7.30;72.90
8103;DHT22;4094;49.948;11.574;2023-02-01T03:03:04;7.30;73.00
8103;DHT22;4094;49.948;11.574;2023-02-01T03:05:52;7.30;72.90
8103;DHT22;4094;49.948;11.574;2023-02-01T03:08:25;7.30;72.90
8103;DHT22;4094;49.948;11.574;2023-02-01T03:10:58;7.30;72.90
8103;DHT22;4094;49.948;11.574;2023-02-01T03:13:35;7.30;73.10
8103;DHT22;4094;49.948;11.574;2023-02-01T03:16:08;7.30;73.10
8103;DHT22;4094;49.948;11.574;2023-02-01T03:18:45;7.30;73.10
8103;DHT22;4094;49.948;11.574;2023-02-01T03:21:19;7.30;72.90
8103;DHT22;4094;49.948;11.574;2023-02-01T03:23:53;7.30;72.90
8103;DHT22;4094;49.948;11.574;2023-02-01T03:26:25;7.30;72.90
8103;DHT22;4094;49.948;11.574;2023-02-01T03:29:00;7.30;72.90
8103;DHT22;4094;49.948;11.574;2023-02-01T03:31:32;7.40;73.00
8103;DHT22;4094;49.948;11.574;2023-02-01T03:34:01;7.40;73.00
8103;DHT22;4094;49.948;11.574;2023-02-01T03:36:36;7.30;72.90
8103;DHT22;4094;49.948;11.574;2023-02-01T03:39:13;7.40;73.00
8103;DHT22;4094;49.948;11.574;2023-02-01T03:41:47;7.30;73.00
8103;DHT22;4094;49.948;11.574;2023-02-01T03:44:22;7.30;73.10
8103;DHT22;4094;49.948;11.574;2023-02-01T03:46:54;7.30;73.10
8103;DHT22;4094;49.948;11.574;2023-02-01T03:49:28;7.30;73.10
8103;DHT22;4094;49.948;11.574;2023-02-01T03:51:59;7.30;73.00
8103;DHT22;4094;49.948;11.574;2023-02-01T03:54:31;7.30;73.20
8103;DHT22;4094;49.948;11.574;2023-02-01T03:57:05;7.40;73.20
8103;DHT22;4094;49.948;11.574;2023-02-01T03:59:39;7.40;73.10
8103;DHT22;4094;49.948;11.574;2023-02-01T04:02:09;7.30;72.90
8103;DHT22;4094;49.948;11.574;2023-02-01T04:04:38;7.40;73.10
8103;DHT22;4094;49.948;11.574;2023-02-01T04:07:07;7.40;73.00
8103;DHT22;4094;49.948;11.574;2023-02-01T04:09:38;7.40;73.10
8103;DHT22;4094;49.948;11.574;2023-02-01T04:12:07;7.40;73.10
8103;DHT22;4094;49.948;11.574;2023-02-01T04:14:36;7.40;73.10
8103;DHT22;4094;49.948;11.574;2023-02-01T04:17:05;7.40;73.20
8103;DHT22;4094;49.948;11.574;2023-02-01T04:19:34;7.40;73.20
8103;DHT22;4094;49.948;11.574;2023-02-01T04:22:03;7.40;73.10
8103;DHT22;4094;49.948;11.574;2023-02-01T04:24:32;7.40;73.20
8103;DHT22;4094;49.948;11.574;2023-02-01T04:27:03;7.40;73.20
8103;DHT22;4094;49.948;11.574;2023-02-01T04:29:33;7.40;73.20
8103;DHT22;4094;49.948;11.574;2023-02-01T04:32:02;7.40;73.90
8103;DHT22;4094;49.948;11.574;2023-02-01T04:34:31;7.50;73.30
8103;DHT22;4094;49.948;11.574;2023-02-01T04:37:00;7.50;73.30
8103;DHT22;4094;49.948;11.574;2023-02-01T04:39:30;7.50;73.30
8103;DHT22;4094;49.948;11.574;2023-02-01T04:41:59;7.50;73.30
8103;DHT22;4094;49.948;11.574;2023-02-01T04:44:29;7.50;73.30
8103;DHT22;4094;49.948;11.574;2023-02-01T04:46:58;7.50;73.30
8103;DHT22;4094;49.948;11.574;2023-02-01T04:49:28;7.50;73.30
8103;DHT22;4094;49.948;11.574;2023-02-01T04:51:56;7.50;73.30
8103;DHT22;4094;49.948;11.574;2023-02-01T04:54:25;7.50;73.50
8103;DHT22;4094;49.948;11.574;2023-02-01T04:56:55;7.50;73.60
8103;DHT22;4094;49.948;11.574;2023-02-01T04:59:24;7.50;73.70
8103;DHT22;4094;49.948;11.574;2023-02-01T05:01:55;7.50;73.70
8103;DHT22;4094;49.948;11.574;2023-02-01T05:04:24;7.50;74.00
8103;DHT22;4094;49.948;11.574;2023-02-01T05:06:53;7.50;74.00
8103;DHT22;4094;49.948;11.574;2023-02-01T05:09:22;7.50;74.00
8103;DHT22;4094;49.948;11.574;2023-02-01T05:11:51;7.50;73.90
8103;DHT22;4094;49.948;11.574;2023-02-01T05:14:37;7.50;73.90
8103;DHT22;4094;49.948;11.574;2023-02-01T05:17:10;7.50;73.90
8103;DHT22;4094;49.948;11.574;2023-02-01T05:19:39;7.50;73.90
8103;DHT22;4094;49.948;11.574;2023-02-01T05:22:08;7.50;73.80
8103;DHT22;4094;49.948;11.574;2023-02-01T05:24:37;7.50;73.70
8103;DHT22;4094;49.948;11.574;2023-02-01T05:27:06;7.50;73.70
8103;DHT22;4094;49.948;11.574;2023-02-01T05:29:35;7.60;73.70
8103;DHT22;4094;49.948;11.574;2023-02-01T05:32:04;7.60;73.70
8103;DHT22;4094;49.948;11.574;2023-02-01T05:34:49;7.60;73.60
8103;DHT22;4094;49.948;11.574;2023-02-01T05:37:18;7.50;73.40
8103;DHT22;4094;49.948;11.574;2023-02-01T05:39:47;7.50;73.40
8103;DHT22;4094;49.948;11.574;2023-02-01T05:42:16;7.50;73.40
8103;DHT22;4094;49.948;11.574;2023-02-01T05:44:45;7.50;73.40
8103;DHT22;4094;49.948;11.574;2023-02-01T05:47:14;7.50;73.50
8103;DHT22;4094;49.948;11.574;2023-02-01T05:49:44;7.50;73.60
8103;DHT22;4094;49.948;11.574;2023-02-01T05:52:14;7.50;73.50
8103;DHT22;4094;49.948;11.574;2023-02-01T05:54:47;7.50;73.60
8103;DHT22;4094;49.948;11.574;2023-02-01T05:57:16;7.50;73.50
8103;DHT22;4094;49.948;11.574;2023-02-01T05:59:45;7.50;73.50
8103;DHT22;4094;49.948;11.574;2023-02-01T06:02:15;7.50;73.40
8103;DHT22;4094;49.948;11.574;2023-02-01T06:04:45;7.50;73.40
8103;DHT22;4094;49.948;11.574;2023-02-01T06:07:15;7.50;73.10
8103;DHT22;4094;49.948;11.574;2023-02-01T06:09:44;7.50;73.10
8103;DHT22;4094;49.948;11.574;2023-02-01T06:12:14;7.50;73.00
8103;DHT22;4094;49.948;11.574;2023-02-01T06:14:43;7.50;73.00
8103;DHT22;4094;49.948;11.574;2023-02-01T06:17:13;7.50;73.00
8103;DHT22;4094;49.948;11.574;2023-02-01T06:19:42;7.50;73.00
8103;DHT22;4094;49.948;11.574;2023-02-01T06:22:12;7.50;73.80
8103;DHT22;4094;49.948;11.574;2023-02-01T06:24:42;7.50;73.00
8103;DHT22;4094;49.948;11.574;2023-02-01T06:27:12;7.50;73.00
8103;DHT22;4094;49.948;11.574;2023-02-01T06:29:42;7.50;72.90
8103;DHT22;4094;49.948;11.574;2023-02-01T06:32:11;7.50;72.90
8103;DHT22;4094;49.948;11.574;2023-02-01T06:34:41;7.50;73.00
8103;DHT22;4094;49.948;11.574;2023-02-01T06:37:10;7.50;73.10
8103;DHT22;4094;49.948;11.574;2023-02-01T06:39:41;7.50;73.00
8103;DHT22;4094;49.948;11.574;2023-02-01T06:42:10;7.50;73.10
8103;DHT22;4094;49.948;11.574;2023-02-01T06:44:39;7.50;72.90
8103;DHT22;4094;49.948;11.574;2023-02-01T06:47:08;7.50;73.00
8103;DHT22;4094;49.948;11.574;2023-02-01T06:49:37;7.50;72.80
8103;DHT22;4094;49.948;11.574;2023-02-01T06:52:08;7.50;72.90
8103;DHT22;4094;49.948;11.574;2023-02-01T06:54:37;7.50;72.80
8103;DHT22;4094;49.948;11.574;2023-02-01T06:57:07;7.50;72.90
8103;DHT22;4094;49.948;11.574;2023-02-01T06:59:37;7.50;72.90
8103;DHT22;4094;49.948;11.574;2023-02-01T07:02:09;7.50;73.00
8103;DHT22;4094;49.948;11.574;2023-02-01T07:04:38;7.60;72.90
8103;DHT22;4094;49.948;11.574;2023-02-01T07:07:08;7.60;72.60
8103;DHT22;4094;49.948;11.574;2023-02-01T07:09:37;7.60;72.80
8103;DHT22;4094;49.948;11.574;2023-02-01T07:12:07;7.60;72.70
8103;DHT22;4094;49.948;11.574;2023-02-01T07:14:37;7.60;72.60
8103;DHT22;4094;49.948;11.574;2023-02-01T07:17:05;7.60;72.30
8103;DHT22;4094;49.948;11.574;2023-02-01T07:19:35;7.60;72.10
8103;DHT22;4094;49.948;11.574;2023-02-01T07:22:04;7.60;72.00
8103;DHT22;4094;49.948;11.574;2023-02-01T07:24:33;7.60;72.10
8103;DHT22;4094;49.948;11.574;2023-02-01T07:27:03;7.60;72.00
8103;DHT22;4094;49.948;11.574;2023-02-01T07:29:33;7.60;72.00
8103;DHT22;4094;49.948;11.574;2023-02-01T07:32:03;7.60;72.00
8103;DHT22;4094;49.948;11.574;2023-02-01T07:34:33;7.60;72.10
8103;DHT22;4094;49.948;11.574;2023-02-01T07:37:02;7.60;71.80
8103;DHT22;4094;49.948;11.574;2023-02-01T07:39:31;7.60;71.90
8103;DHT22;4094;49.948;11.574;2023-02-01T07:42:00;7.60;71.80
8103;DHT22;4094;49.948;11.574;2023-02-01T07:44:30;7.60;72.40
8103;DHT22;4094;49.948;11.574;2023-02-01T07:47:00;7.60;71.50
8103;DHT22;4094;49.948;11.574;2023-02-01T07:49:30;7.60;71.70
8103;DHT22;4094;49.948;11.574;2023-02-01T07:51:59;7.60;71.70
8103;DHT22;4094;49.948;11.574;2023-02-01T07:54:28;7.60;71.80
8103;DHT22;4094;49.948;11.574;2023-02-01T07:56:57;7.60;71.70
8103;DHT22;4094;49.948;11.574;2023-02-01T07:59:27;7.70;71.70
8103;DHT22;4094;49.948;11.574;2023-02-01T08:01:56;7.70;71.70
8103;DHT22;4094;49.948;11.574;2023-02-01T08:04:27;7.60;71.50
8103;DHT22;4094;49.948;11.574;2023-02-01T08:06:56;7.70;71.50
8103;DHT22;4094;49.948;11.574;2023-02-01T08:09:25;7.70;71.50
8103;DHT22;4094;49.948;11.574;2023-02-01T08:11:55;7.70;71.70
8103;DHT22;4094;49.948;11.574;2023-02-01T08:14:24;7.70;71.70
8103;DHT22;4094;49.948;11.574;2023-02-01T08:16:53;7.80;71.80
8103;DHT22;4094;49.948;11.574;2023-02-01T08:19:22;7.80;71.60
8103;DHT22;4094;49.948;11.574;2023-02-01T08:21:52;7.80;71.50
8103;DHT22;4094;49.948;11.574;2023-02-01T08:24:21;7.90;71.40
8103;DHT22;4094;49.948;11.574;2023-02-01T08:26:50;7.90;71.30
8103;DHT22;4094;49.948;11.574;2023-02-01T08:29:20;7.90;71.20
8103;DHT22;4094;49.948;11.574;2023-02-01T08:31:50;7.90;71.10
8103;DHT22;4094;49.948;11.574;2023-02-01T08:34:20;7.90;71.20
8103;DHT22;4094;49.948;11.574;2023-02-01T08:36:49;7.90;71.20
8103;DHT22;4094;49.948;11.574;2023-02-01T08:39:26;7.90;71.00
8103;DHT22;4094;49.948;11.574;2023-02-01T08:41:56;7.90;70.70
8103;DHT22;4094;49.948;11.574;2023-02-01T08:44:42;7.90;70.70
8103;DHT22;4094;49.948;11.574;2023-02-01T08:47:11;8.00;70.70
8103;DHT22;4094;49.948;11.574;2023-02-01T08:49:41;8.00;70.70
8103;DHT22;4094;49.948;11.574;2023-02-01T08:52:10;8.00;70.60
8103;DHT22;4094;49.948;11.574;2023-02-01T08:54:44;8.00;70.50
8103;DHT22;4094;49.948;11.574;2023-02-01T08:57:13;8.00;70.60
8103;DHT22;4094;49.948;11.574;2023-02-01T08:59:43;8.00;70.60
8103;DHT22;4094;49.948;11.574;2023-02-01T09:02:15;8.00;70.40
8103;DHT22;4094;49.948;11.574;2023-02-01T09:04:44;8.10;70.20
8103;DHT22;4094;49.948;11.574;2023-02-01T09:07:13;8.10;70.10
8103;DHT22;4094;49.948;11.574;2023-02-01T09:09:45;8.10;70.10
8103;DHT22;4094;49.948;11.574;2023-02-01T09:12:15;8.10;69.70
8103;DHT22;4094;49.948;11.574;2023-02-01T09:14:44;8.00;69.90
8103;DHT22;4094;49.948;11.574;2023-02-01T09:17:13;8.00;69.50
8103;DHT22;4094;49.948;11.574;2023-02-01T09:19:42;8.00;69.70
8103;DHT22;4094;49.948;11.574;2023-02-01T09:22:11;8.00;69.60
8103;DHT22;4094;49.948;11.574;2023-02-01T09:24:40;8.00;69.50
8103;DHT22;4094;49.948;11.574;2023-02-01T09:27:11;8.00;69.50
8103;DHT22;4094;49.948;11.574;2023-02-01T09:29:40;8.00;69.30
8103;DHT22;4094;49.948;11.574;2023-02-01T09:32:09;8.00;69.40
8103;DHT22;4094;49.948;11.574;2023-02-01T09:34:38;8.00;69.20
8103;DHT22;4094;49.948;11.574;2023-02-01T09:37:07;8.00;69.20
8103;DHT22;4094;49.948;11.574;2023-02-01T09:39:37;8.00;69.10
8103;DHT22;4094;49.948;11.574;2023-02-01T09:42:19;8.00;69.00
8103;DHT22;4094;49.948;11.574;2023-02-01T09:45:10;8.10;68.90
8103;DHT22;4094;49.948;11.574;2023-02-01T09:47:49;8.10;68.60
8103;DHT22;4094;49.948;11.574;2023-02-01T09:50:21;8.10;68.70
8103;DHT22;4094;49.948;11.574;2023-02-01T09:52:55;8.10;68.30
8103;DHT22;4094;49.948;11.574;2023-02-01T09:55:34;8.10;68.70
8103;DHT22;4094;49.948;11.574;2023-02-01T09:58:11;8.10;68.90
8103;DHT22;4094;49.948;11.574;2023-02-01T10:00:47;8.10;68.70
8103;DHT22;4094;49.948;11.574;2023-02-01T10:03:20;8.20;68.70
8103;DHT22;4094;49.948;11.574;2023-02-01T10:06:20;8.20;68.80
8103;DHT22;4094;49.948;11.574;2023-02-01T10:09:10;8.20;68.80
8103;DHT22;4094;49.948;11.574;2023-02-01T10:11:55;8.20;68.60
8103;DHT22;4094;49.948;11.574;2023-02-01T10:14:50;8.30;69.30
8103;DHT22;4094;49.948;11.574;2023-02-01T10:17:30;8.30;68.50
8103;DHT22;4094;49.948;11.574;2023-02-01T10:20:09;8.30;67.80
8103;DHT22;4094;49.948;11.574;2023-02-01T10:22:43;8.30;67.80
8103;DHT22;4094;49.948;11.574;2023-02-01T10:25:36;8.30;68.00
8103;DHT22;4094;49.948;11.574;2023-02-01T10:28:12;8.30;68.80
8103;DHT22;4094;49.948;11.574;2023-02-01T10:30:46;8.30;68.20
8103;DHT22;4094;49.948;11.574;2023-02-01T10:33:18;8.30;68.10
8103;DHT22;4094;49.948;11.574;2023-02-01T10:35:53;8.40;68.40
8103;DHT22;4094;49.948;11.574;2023-02-01T10:38:27;8.40;68.10
8103;DHT22;4094;49.948;11.574;2023-02-01T10:41:01;8.40;67.90
8103;DHT22;4094;49.948;11.574;2023-02-01T10:43:31;8.40;67.80
8103;DHT22;4094;49.948;11.574;2023-02-01T10:46:03;8.50;67.90
8103;DHT22;4094;49.948;11.574;2023-02-01T10:48:33;8.50;67.60
8103;DHT22;4094;49.948;11.574;2023-02-01T10:51:07;8.50;67.60
8103;DHT22;4094;49.948;11.574;2023-02-01T10:53:43;8.50;67.50
8103;DHT22;4094;49.948;11.574;2023-02-01T10:56:13;8.50;67.60
8103;DHT22;4094;49.948;11.574;2023-02-01T10:58:46;8.50;67.70
8103;DHT22;4094;49.948;11.574;2023-02-01T11:01:19;8.50;67.70
8103;DHT22;4094;49.948;11.574;2023-02-01T11:03:53;8.60;67.30
8103;DHT22;4094;49.948;11.574;2023-02-01T11:06:27;8.60;67.20
8103;DHT22;4094;49.948;11.574;2023-02-01T11:08:58;8.60;67.10
8103;DHT22;4094;49.948;11.574;2023-02-01T11:11:28;8.60;67.00
8103;DHT22;4094;49.948;11.574;2023-02-01T11:13:59;8.60;67.10
8103;DHT22;4094;49.948;11.574;2023-02-01T11:16:34;8.60;67.10
8103;DHT22;4094;49.948;11.574;2023-02-01T11:19:04;8.60;67.00
8103;DHT22;4094;49.948;11.574;2023-02-01T11:21:34;8.60;66.60
8103;DHT22;4094;49.948;11.574;2023-02-01T11:24:11;8.60;66.80
8103;DHT22;4094;49.948;11.574;2023-02-01T11:26:47;8.60;67.00
8103;DHT22;4094;49.948;11.574;2023-02-01T11:29:18;8.70;67.00
8103;DHT22;4094;49.948;11.574;2023-02-01T11:31:52;8.70;66.80
8103;DHT22;4094;49.948;11.574;2023-02-01T11:34:25;8.70;66.50
8103;DHT22;4094;49.948;11.574;2023-02-01T11:36:58;8.70;66.20
8103;DHT22;4094;49.948;11.574;2023-02-01T11:39:30;8.70;66.40
8103;DHT22;4094;49.948;11.574;2023-02-01T11:42:02;8.70;66.40
8103;DHT22;4094;49.948;11.574;2023-02-01T11:44:35;8.70;66.30
8103;DHT22;4094;49.948;11.574;2023-02-01T11:47:24;8.70;66.30
8103;DHT22;4094;49.948;11.574;2023-02-01T11:49:55;8.70;66.30
8103;DHT22;4094;49.948;11.574;2023-02-01T11:52:40;8.70;66.10
8103;DHT22;4094;49.948;11.574;2023-02-01T11:55:36;8.70;66.20
8103;DHT22;4094;49.948;11.574;2023-02-01T11:58:18;8.70;66.10
8103;DHT22;4094;49.948;11.574;2023-02-01T12:01:01;8.70;66.20
8103;DHT22;4094;49.948;11.574;2023-02-01T12:04:01;8.70;66.30
8103;DHT22;4094;49.948;11.574;2023-02-01T12:06:41;8.70;66.30
8103;DHT22;4094;49.948;11.574;2023-02-01T12:09:24;8.70;66.00
8103;DHT22;4094;49.948;11.574;2023-02-01T12:12:04;8.70;65.70
8103;DHT22;4094;49.948;11.574;2023-02-01T12:14:51;8.60;65.80
8103;DHT22;4094;49.948;11.574;2023-02-01T12:17:48;8.60;66.00
8103;DHT22;4094;49.948;11.574;2023-02-01T12:20:31;8.60;66.20
8103;DHT22;4094;49.948;11.574;2023-02-01T12:23:14;8.60;66.30
8103;DHT22;4094;49.948;11.574;2023-02-01T12:26:04;8.60;66.30
8103;DHT22;4094;49.948;11.574;2023-02-01T12:28:54;8.60;66.50
8103;DHT22;4094;49.948;11.574;2023-02-01T12:31:51;8.60;66.70
8103;DHT22;4094;49.948;11.574;2023-02-01T12:34:42;8.60;66.80
8103;DHT22;4094;49.948;11.574;2023-02-01T12:37:27;8.60;66.70
8103;DHT22;4094;49.948;11.574;2023-02-01T12:40:05;8.60;66.50
8103;DHT22;4094;49.948;11.574;2023-02-01T12:42:43;8.60;66.80
8103;DHT22;4094;49.948;11.574;2023-02-01T12:45:21;8.60;66.80
8103;DHT22;4094;49.948;11.574;2023-02-01T12:47:57;8.60;66.70
8103;DHT22;4094;49.948;11.574;2023-02-01T12:50:42;8.60;66.70
8103;DHT22;4094;49.948;11.574;2023-02-01T12:53:22;8.60;66.60
8103;DHT22;4094;49.948;11.574;2023-02-01T12:55:54;8.60;66.50
8103;DHT22;4094;49.948;11.574;2023-02-01T12:58:27;8.60;66.50
8103;DHT22;4094;49.948;11.574;2023-02-01T13:00:59;8.60;66.50
8103;DHT22;4094;49.948;11.574;2023-02-01T13:03:35;8.60;66.40
8103;DHT22;4094;49.948;11.574;2023-02-01T13:06:39;8.60;66.40
8103;DHT22;4094;49.948;11.574;2023-02-01T13:09:18;8.70;66.40
8103;DHT22;4094;49.948;11.574;2023-02-01T13:11:50;8.70;66.40
8103;DHT22;4094;49.948;11.574;2023-02-01T13:14:30;8.70;66.50
8103;DHT22;4094;49.948;11.574;2023-02-01T13:17:03;8.70;66.30
8103;DHT22;4094;49.948;11.574;2023-02-01T13:19:41;8.70;66.30
8103;DHT22;4094;49.948;11.574;2023-02-01T13:22:13;8.70;65.80
8103;DHT22;4094;49.948;11.574;2023-02-01T13:24:49;8.80;65.70
8103;DHT22;4094;49.948;11.574;2023-02-01T13:27:19;8.80;65.30
8103;DHT22;4094;49.948;11.574;2023-02-01T13:29:54;8.80;65.30
8103;DHT22;4094;49.948;11.574;2023-02-01T13:32:51;8.70;65.10
8103;DHT22;4094;49.948;11.574;2023-02-01T13:35:55;8.70;65.40
8103;DHT22;4094;49.948;11.574;2023-02-01T13:38:38;8.70;65.10
8103;DHT22;4094;49.948;11.574;2023-02-01T13:41:24;8.70;64.70
8103;DHT22;4094;49.948;11.574;2023-02-01T13:44:00;8.70;64.80
8103;DHT22;4094;49.948;11.574;2023-02-01T13:46:30;8.70;65.50
8103;DHT22;4094;49.948;11.574;2023-02-01T13:49:18;8.70;64.80
8103;DHT22;4094;49.948;11.574;2023-02-01T13:51:52;8.70;64.50
8103;DHT22;4094;49.948;11.574;2023-02-01T13:54:30;8.70;65.30
8103;DHT22;4094;49.948;11.574;2023-02-01T13:57:03;8.70;64.10
8103;DHT22;4094;49.948;11.574;2023-02-01T14:06:18;8.80;65.00
8103;DHT22;4094;49.948;11.574;2023-02-01T14:09:33;8.80;65.40
8103;DHT22;4094;49.948;11.574;2023-02-01T14:15:27;8.80;64.60
8103;DHT22;4094;49.948;11.574;2023-02-01T14:17:57;8.80;64.70
8103;DHT22;4094;49.948;11.574;2023-02-01T14:20:44;8.80;64.80
8103;DHT22;4094;49.948;11.574;2023-02-01T14:23:20;8.80;64.10
8103;DHT22;4094;49.948;11.574;2023-02-01T14:26:15;8.80;64.10
8103;DHT22;4094;49.948;11.574;2023-02-01T14:28:50;8.80;63.50
8103;DHT22;4094;49.948;11.574;2023-02-01T14:31:52;8.80;63.30
8103;DHT22;4094;49.948;11.574;2023-02-01T14:34:29;8.70;62.90
8103;DHT22;4094;49.948;11.574;2023-02-01T14:37:03;8.70;63.50
8103;DHT22;4094;49.948;11.574;2023-02-01T14:39:54;8.70;63.70
8103;DHT22;4094;49.948;11.574;2023-02-01T14:42:26;8.70;63.20
8103;DHT22;4094;49.948;11.574;2023-02-01T14:48:43;8.70;63.00
8103;DHT22;4094;49.948;11.574;2023-02-01T14:51:16;8.80;63.40
8103;DHT22;4094;49.948;11.574;2023-02-01T14:53:46;8.70;63.10
8103;DHT22;4094;49.948;11.574;2023-02-01T14:56:17;8.70;63.20
8103;DHT22;4094;49.948;11.574;2023-02-01T14:58:54;8.70;63.10
8103;DHT22;4094;49.948;11.574;2023-02-01T15:01:27;8.70;62.90
8103;DHT22;4094;49.948;11.574;2023-02-01T15:04:03;8.70;62.60
8103;DHT22;4094;49.948;11.574;2023-02-01T15:06:37;8.70;62.50
8103;DHT22;4094;49.948;11.574;2023-02-01T15:09:12;8.70;62.70
8103;DHT22;4094;49.948;11.574;2023-02-01T15:12:00;8.70;62.90
8103;DHT22;4094;49.948;11.574;2023-02-01T15:14:31;8.70;62.80
8103;DHT22;4094;49.948;11.574;2023-02-01T15:17:01;8.70;62.90
8103;DHT22;4094;49.948;11.574;2023-02-01T15:19:32;8.70;62.50
8103;DHT22;4094;49.948;11.574;2023-02-01T15:22:01;8.70;62.60
8103;DHT22;4094;49.948;11.574;2023-02-01T15:24:31;8.60;62.50
8103;DHT22;4094;49.948;11.574;2023-02-01T15:27:04;8.70;62.60
8103;DHT22;4094;49.948;11.574;2023-02-01T15:29:33;8.60;62.50
8103;DHT22;4094;49.948;11.574;2023-02-01T15:32:03;8.70;62.80
8103;DHT22;4094;49.948;11.574;2023-02-01T15:34:50;8.70;62.50
8103;DHT22;4094;49.948;11.574;2023-02-01T15:37:21;8.70;61.90
8103;DHT22;4094;49.948;11.574;2023-02-01T15:40:19;8.60;62.20
8103;DHT22;4094;49.948;11.574;2023-02-01T15:42:52;8.70;62.20
8103;DHT22;4094;49.948;11.574;2023-02-01T15:45:25;8.60;62.10
8103;DHT22;4094;49.948;11.574;2023-02-01T15:47:57;8.60;62.00
8103;DHT22;4094;49.948;11.574;2023-02-01T15:50:30;8.60;62.10
8103;DHT22;4094;49.948;11.574;2023-02-01T15:53:00;8.60;62.20
8103;DHT22;4094;49.948;11.574;2023-02-01T15:55:34;8.60;62.50
8103;DHT22;4094;49.948;11.574;2023-02-01T15:58:05;8.60;62.30
8103;DHT22;4094;49.948;11.574;2023-02-01T16:00:42;8.60;62.30
8103;DHT22;4094;49.948;11.574;2023-02-01T16:03:26;8.60;62.10
8103;DHT22;4094;49.948;11.574;2023-02-01T16:05:58;8.60;61.90
8103;DHT22;4094;49.948;11.574;2023-02-01T16:08:30;8.60;61.80
8103;DHT22;4094;49.948;11.574;2023-02-01T16:11:10;8.60;62.10
8103;DHT22;4094;49.948;11.574;2023-02-01T16:13:42;8.50;62.00
8103;DHT22;4094;49.948;11.574;2023-02-01T16:16:11;8.50;61.80
8103;DHT22;4094;49.948;11.574;2023-02-01T16:18:42;8.50;62.10
8103;DHT22;4094;49.948;11.574;2023-02-01T16:21:13;8.50;61.80
8103;DHT22;4094;49.948;11.574;2023-02-01T16:23:42;8.60;61.90
8103;DHT22;4094;49.948;11.574;2023-02-01T16:26:11;8.50;61.80
8103;DHT22;4094;49.948;11.574;2023-02-01T16:28:40;8.50;61.90
8103;DHT22;4094;49.948;11.574;2023-02-01T16:31:11;8.60;61.90
8103;DHT22;4094;49.948;11.574;2023-02-01T16:33:49;8.60;61.90
8103;DHT22;4094;49.948;11.574;2023-02-01T16:36:20;8.60;61.90
8103;DHT22;4094;49.948;11.574;2023-02-01T16:38:49;8.50;61.10
8103;DHT22;4094;49.948;11.574;2023-02-01T16:41:23;8.60;61.80
8103;DHT22;4094;49.948;11.574;2023-02-01T16:43:53;8.50;61.50
8103;DHT22;4094;49.948;11.574;2023-02-01T16:46:25;8.50;61.40
8103;DHT22;4094;49.948;11.574;2023-02-01T16:48:57;8.50;61.50
8103;DHT22;4094;49.948;11.574;2023-02-01T16:51:30;8.50;61.70
8103;DHT22;4094;49.948;11.574;2023-02-01T16:54:00;8.50;61.60
8103;DHT22;4094;49.948;11.574;2023-02-01T16:56:32;8.50;61.50
8103;DHT22;4094;49.948;11.574;2023-02-01T16:59:01;8.50;61.70
8103;DHT22;4094;49.948;11.574;2023-02-01T17:01:30;8.50;61.70
8103;DHT22;4094;49.948;11.574;2023-02-01T17:03:59;8.50;61.70
8103;DHT22;4094;49.948;11.574;2023-02-01T17:06:31;8.50;61.70
8103;DHT22;4094;49.948;11.574;2023-02-01T17:09:01;8.50;61.70
8103;DHT22;4094;49.948;11.574;2023-02-01T17:11:30;8.60;61.90
8103;DHT22;4094;49.948;11.574;2023-02-01T17:14:07;8.50;61.80